Disclaimer

Please do not use the information listed here in-flight or in-navigation, as they are not provided to us by the airports but are provided by volunteers, so they might be outdated.

Search


Regions


Airport information page

No radio frequency information is available.

Airport informations:
Latitude: 60° 25' 19.26" N
Longitude: 015° 30' 54.76" E
Elevation: 503 feet - 153 meters
Operating hours: 24 hour operations
Operating agency: Military-civil joint use airport
Timezone: UTC+1(+2DT) - Last Sunday in March to last Sunday in October
Fuel: Jet A1, without icing nhibitor.

100/130 MIL Spec, low lead, aviation gasoline (BLUE)

Runway information:
14/32 - 7579 x 148 feet< - >2310 x 45 meters

Recent METARs:
ESSD 160650Z 24008KT 9999 BKN017 08/07 Q1031
ESSD 160720Z 23008KT 9999 BKN018 08/06 Q1031
ESSD 160750Z 24009KT 9999 BKN019 08/06 Q1031

Airport on the map: